createdAt,value
2018-05-09T00:00:24.407Z,3.60
2018-05-09T00:01:23.392Z,3.20
2018-05-09T00:03:23.774Z,3.70
2018-05-09T00:04:24.268Z,3.60
2018-05-09T00:06:24.301Z,3.60
2018-05-09T00:07:24.164Z,3.40
2018-05-09T00:09:26.183Z,3.50
2018-05-09T00:10:25.154Z,3.40
2018-05-09T00:12:25.686Z,3.50
2018-05-09T00:13:25.588Z,3.20
2018-05-09T00:15:25.640Z,3.30
2018-05-09T00:16:25.584Z,3.30
2018-05-09T00:18:26.073Z,3.60
2018-05-09T00:19:25.983Z,3.80
2018-05-09T00:21:24.480Z,3.30
2018-05-09T00:22:24.133Z,3.30
2018-05-09T00:24:24.576Z,3.80
2018-05-09T00:25:25.126Z,3.40
2018-05-09T00:27:22.720Z,3.60
2018-05-09T00:28:22.697Z,3.60
2018-05-09T00:30:25.617Z,3.70
2018-05-09T00:31:24.119Z,3.50
2018-05-09T00:33:25.314Z,4.00
2018-05-09T00:34:27.105Z,3.90
2018-05-09T00:36:25.787Z,3.70
2018-05-09T00:37:25.792Z,3.40
2018-05-09T00:39:26.736Z,3.40
2018-05-09T00:40:26.793Z,3.50
2018-05-09T00:42:22.795Z,3.80
2018-05-09T00:43:22.769Z,3.50
2018-05-09T00:45:23.696Z,3.40
2018-05-09T00:46:23.670Z,3.80
2018-05-09T00:48:25.148Z,4.00
2018-05-09T00:49:24.695Z,3.30
2018-05-09T00:51:25.577Z,4.00
2018-05-09T00:52:26.132Z,3.80
2018-05-09T00:54:26.113Z,3.90
2018-05-09T00:55:27.112Z,3.50
2018-05-09T00:57:26.004Z,3.30
2018-05-09T00:58:27.001Z,3.70
2018-05-09T01:00:27.959Z,3.40
2018-05-09T01:01:29.040Z,3.70
2018-05-09T01:03:25.965Z,3.30
2018-05-09T01:04:25.625Z,3.30
2018-05-09T01:06:27.667Z,3.10
2018-05-09T01:07:26.575Z,3.30
2018-05-09T01:09:32.882Z,3.40
2018-05-09T01:10:32.014Z,3.70
2018-05-09T01:12:32.513Z,3.80
2018-05-09T01:13:32.958Z,3.50
2018-05-09T01:15:33.886Z,4.40
2018-05-09T01:16:34.922Z,3.80
2018-05-09T01:18:34.386Z,3.90
2018-05-09T01:19:34.372Z,4.30
2018-05-09T01:21:34.890Z,3.50
2018-05-09T01:22:34.924Z,3.80
2018-05-09T01:24:36.306Z,3.70
2018-05-09T01:25:35.325Z,3.60
2018-05-09T01:27:35.746Z,3.40
2018-05-09T01:28:35.697Z,3.20
2018-05-09T01:30:36.189Z,3.50
2018-05-09T01:31:36.721Z,3.60
2018-05-09T01:33:38.187Z,3.20
2018-05-09T01:34:37.606Z,3.50
2018-05-09T01:36:39.601Z,3.40
2018-05-09T01:37:38.100Z,3.10
2018-05-09T01:39:39.555Z,3.60
2018-05-09T01:40:38.564Z,3.70
2018-05-09T01:42:39.075Z,3.40
2018-05-09T01:43:39.049Z,3.60
2018-05-09T01:45:39.487Z,3.90
2018-05-09T01:46:39.515Z,4.10
2018-05-09T01:48:39.942Z,4.20
2018-05-09T01:49:39.938Z,4.10
2018-05-09T01:51:41.325Z,3.70
2018-05-09T01:52:40.367Z,3.50
2018-05-09T01:54:41.259Z,3.70
2018-05-09T01:55:40.729Z,4.20
2018-05-09T01:57:42.764Z,3.80
2018-05-09T01:58:41.252Z,3.90
2018-05-09T02:00:43.681Z,3.70
2018-05-09T02:01:42.713Z,3.90
2018-05-09T02:03:40.610Z,3.90
2018-05-09T02:04:39.713Z,3.80
2018-05-09T02:06:38.668Z,4.10
2018-05-09T02:07:35.696Z,3.80
2018-05-09T02:09:36.550Z,3.90
2018-05-09T02:10:36.133Z,4.10
2018-05-09T02:12:41.082Z,3.90
2018-05-09T02:13:40.145Z,4.10
2018-05-09T02:15:38.600Z,3.80
2018-05-09T02:16:37.956Z,3.80
2018-05-09T02:18:39.395Z,3.80
2018-05-09T02:19:38.541Z,4.40
2018-05-09T02:21:40.372Z,4.20
2018-05-09T02:22:41.021Z,5.00
2018-05-09T02:24:39.915Z,4.30
2018-05-09T02:25:39.356Z,4.40
2018-05-09T02:27:39.867Z,4.00
2018-05-09T02:28:39.873Z,4.10
2018-05-09T02:30:38.769Z,4.00
2018-05-09T02:31:38.816Z,3.80
2018-05-09T02:33:38.428Z,3.90
2018-05-09T02:34:38.839Z,4.00
2018-05-09T02:36:36.877Z,4.20
2018-05-09T02:37:36.324Z,4.30
2018-05-09T02:39:37.840Z,4.10
2018-05-09T02:40:36.886Z,4.20
2018-05-09T02:42:38.243Z,4.10
2018-05-09T02:43:37.250Z,4.00
2018-05-09T02:45:39.769Z,4.70
2018-05-09T02:46:39.735Z,4.40
2018-05-09T02:48:40.763Z,4.40
2018-05-09T02:49:40.680Z,4.20
2018-05-09T02:51:41.640Z,4.60
2018-05-09T02:52:40.841Z,4.40
2018-05-09T02:54:42.090Z,4.00
2018-05-09T02:55:41.139Z,4.00
2018-05-09T02:57:42.544Z,4.00
2018-05-09T02:58:41.603Z,4.10
2018-05-09T03:00:42.066Z,4.20
2018-05-09T03:01:42.124Z,4.20
2018-05-09T03:03:44.476Z,4.20
2018-05-09T03:04:43.480Z,4.20
2018-05-09T03:06:41.031Z,4.50
2018-05-09T03:07:42.006Z,4.30
2018-05-09T03:09:37.009Z,4.80
2018-05-09T03:10:36.436Z,4.30
2018-05-09T03:12:38.314Z,4.10
2018-05-09T03:13:36.815Z,4.00
2018-05-09T03:15:41.390Z,4.20
2018-05-09T03:16:41.891Z,4.20
2018-05-09T03:18:42.250Z,4.30
2018-05-09T03:19:42.347Z,4.20
2018-05-09T03:21:43.700Z,4.80
2018-05-09T03:22:43.230Z,4.60
2018-05-09T03:24:43.683Z,4.30
2018-05-09T03:25:43.722Z,4.60
2018-05-09T03:27:44.175Z,4.10
2018-05-09T03:28:45.147Z,4.60
2018-05-09T03:30:47.233Z,4.60
2018-05-09T03:31:46.137Z,4.80
2018-05-09T03:33:46.751Z,4.70
2018-05-09T03:34:47.310Z,6.00
2018-05-09T03:36:46.263Z,4.60
2018-05-09T03:37:45.895Z,4.60
2018-05-09T03:39:46.391Z,4.90
2018-05-09T03:40:46.933Z,4.30
2018-05-09T03:42:46.931Z,4.80
2018-05-09T03:43:48.347Z,4.70
2018-05-09T03:45:48.279Z,5.00
2018-05-09T03:46:47.488Z,5.10
2018-05-09T03:48:48.792Z,5.00
2018-05-09T03:49:47.944Z,5.10
2018-05-09T03:51:50.397Z,5.20
2018-05-09T03:52:49.329Z,4.80
2018-05-09T03:54:51.302Z,10.80
2018-05-09T03:55:51.873Z,8.00
2018-05-09T03:57:50.327Z,6.00
2018-05-09T03:58:48.972Z,6.10
2018-05-09T04:00:51.435Z,5.70
2018-05-09T04:01:49.320Z,5.10
2018-05-09T04:03:50.396Z,6.00
2018-05-09T04:04:50.356Z,6.60
2018-05-09T04:06:52.892Z,5.00
2018-05-09T04:07:50.292Z,5.30
2018-05-09T04:09:50.767Z,4.70
2018-05-09T04:10:51.237Z,5.80
2018-05-09T04:12:54.224Z,5.80
2018-05-09T04:13:53.230Z,5.70
2018-05-09T04:15:51.669Z,5.50
2018-05-09T04:16:51.602Z,5.00
2018-05-09T04:18:52.583Z,5.60
2018-05-09T04:19:52.274Z,5.40
2018-05-09T04:21:55.751Z,5.50
2018-05-09T04:22:53.668Z,5.20
2018-05-09T04:24:56.715Z,6.20
2018-05-09T04:25:55.607Z,5.60
2018-05-09T04:27:52.044Z,5.00
2018-05-09T04:28:52.142Z,5.10
2018-05-09T04:30:52.503Z,5.50
2018-05-09T04:31:54.543Z,5.40
2018-05-09T04:33:53.963Z,5.30
2018-05-09T04:34:53.925Z,5.10
2018-05-09T04:36:54.948Z,5.60
2018-05-09T04:37:54.994Z,5.20
2018-05-09T04:39:55.351Z,6.90
2018-05-09T04:40:56.036Z,5.50
2018-05-09T04:42:55.366Z,5.30
2018-05-09T04:43:55.816Z,6.20
2018-05-09T04:45:51.201Z,6.10
2018-05-09T04:46:51.276Z,5.70
2018-05-09T04:48:50.262Z,5.50
2018-05-09T04:49:51.224Z,6.00
2018-05-09T04:51:51.287Z,5.90
2018-05-09T04:52:50.785Z,6.20
2018-05-09T04:54:51.678Z,5.90
2018-05-09T04:55:51.361Z,6.00
2018-05-09T04:57:54.255Z,5.80
2018-05-09T04:58:52.875Z,6.00
2018-05-09T05:00:53.246Z,5.30
2018-05-09T05:01:58.243Z,6.10
2018-05-09T05:03:58.893Z,5.70
2018-05-09T05:04:54.754Z,5.90
2018-05-09T05:07:10.915Z,5.90
2018-05-09T05:07:58.931Z,5.40
2018-05-09T05:10:07.837Z,5.40
2018-05-09T05:13:05.197Z,6.30
2018-05-09T05:14:05.667Z,7.00
2018-05-09T05:16:05.216Z,5.90
2018-05-09T05:17:06.243Z,6.20
2018-05-09T05:19:06.567Z,6.30
2018-05-09T05:20:06.668Z,7.20
2018-05-09T05:22:07.098Z,6.70
2018-05-09T05:23:08.148Z,6.80
2018-05-09T05:25:04.037Z,6.20
2018-05-09T05:26:03.032Z,6.40
2018-05-09T05:28:01.026Z,6.70
2018-05-09T05:29:01.027Z,6.40
2018-05-09T05:31:02.938Z,5.60
2018-05-09T05:32:03.051Z,6.10
2018-05-09T05:34:03.393Z,5.70
2018-05-09T05:35:01.946Z,6.50
2018-05-09T05:37:09.935Z,6.00
2018-05-09T05:38:03.386Z,6.10
2018-05-09T05:40:06.430Z,6.60
2018-05-09T05:41:02.906Z,6.60
2018-05-09T05:43:03.331Z,6.30
2018-05-09T05:44:04.322Z,6.10
2018-05-09T05:46:01.324Z,6.80
2018-05-09T05:47:01.811Z,6.30
2018-05-09T05:49:01.690Z,6.00
2018-05-09T05:50:01.726Z,6.50
2018-05-09T05:51:59.739Z,6.70
2018-05-09T05:53:00.186Z,6.00
2018-05-09T05:55:00.629Z,7.30
2018-05-09T05:56:00.268Z,6.40
2018-05-09T05:58:01.117Z,5.90
2018-05-09T05:59:00.616Z,7.40
2018-05-09T06:00:59.574Z,6.40
2018-05-09T06:01:59.636Z,5.90
2018-05-09T06:03:54.596Z,6.00
2018-05-09T06:04:54.560Z,6.20
2018-05-09T06:06:56.037Z,5.90
2018-05-09T06:07:56.561Z,6.70
2018-05-09T06:09:54.469Z,6.20
2018-05-09T06:10:53.440Z,5.70
2018-05-09T06:12:53.947Z,5.30
2018-05-09T06:13:54.926Z,5.30
2018-05-09T06:15:54.449Z,5.80
2018-05-09T06:16:53.847Z,5.60
2018-05-09T06:18:54.361Z,6.30
2018-05-09T06:19:57.318Z,7.50
2018-05-09T06:21:56.347Z,5.40
2018-05-09T06:22:55.803Z,5.50
2018-05-09T06:24:59.787Z,5.60
2018-05-09T06:25:59.887Z,6.40
2018-05-09T06:27:56.797Z,7.10
2018-05-09T06:28:58.302Z,6.30
2018-05-09T06:30:54.896Z,6.20
2018-05-09T06:31:55.717Z,6.00
2018-05-09T06:33:55.820Z,5.80
2018-05-09T06:34:55.327Z,6.70
2018-05-09T06:36:55.742Z,5.90
2018-05-09T06:37:56.283Z,6.40
2018-05-09T06:39:57.758Z,6.30
2018-05-09T06:40:56.222Z,6.00
2018-05-09T06:42:56.748Z,6.30
2018-05-09T06:43:57.220Z,5.50
2018-05-09T06:45:53.688Z,6.20
2018-05-09T06:46:53.137Z,6.20
2018-05-09T06:48:53.122Z,5.50
2018-05-09T06:49:53.088Z,6.00
2018-05-09T06:51:54.526Z,5.70
2018-05-09T06:52:53.519Z,5.60
2018-05-09T06:54:52.506Z,6.40
2018-05-09T06:55:51.617Z,6.30
2018-05-09T06:57:52.075Z,6.10
2018-05-09T06:58:52.099Z,6.00
2018-05-09T07:00:52.548Z,6.10
2018-05-09T07:01:52.539Z,6.30
2018-05-09T07:03:52.994Z,5.80
2018-05-09T07:04:52.992Z,6.00
2018-05-09T07:06:53.468Z,5.60
2018-05-09T07:07:53.502Z,5.80
2018-05-09T07:09:50.911Z,5.40
2018-05-09T07:10:50.949Z,5.80
2018-05-09T07:12:52.360Z,6.50
2018-05-09T07:13:51.871Z,5.30
2018-05-09T07:15:47.906Z,5.70
2018-05-09T07:16:47.355Z,5.50
2018-05-09T07:18:47.333Z,5.60
2018-05-09T07:19:47.406Z,5.60
2018-05-09T07:21:45.279Z,5.70
2018-05-09T07:22:45.756Z,6.00
2018-05-09T07:24:44.256Z,5.20
2018-05-09T07:25:43.256Z,5.30
2018-05-09T07:27:41.223Z,5.00
2018-05-09T07:28:41.159Z,5.20
2018-05-09T07:30:41.168Z,4.90
2018-05-09T07:31:39.144Z,5.30
2018-05-09T07:33:37.741Z,5.60
2018-05-09T07:34:37.256Z,5.40
2018-05-09T07:36:37.722Z,5.30
2018-05-09T07:37:37.714Z,4.80
2018-05-09T07:39:38.219Z,4.90
2018-05-09T07:40:39.228Z,5.40
2018-05-09T07:42:39.668Z,5.00
2018-05-09T07:43:38.701Z,4.60
2018-05-09T07:45:36.606Z,5.40
2018-05-09T07:46:36.156Z,5.00
2018-05-09T07:48:31.571Z,5.00
2018-05-09T07:49:32.549Z,5.40
2018-05-09T07:51:31.012Z,5.70
2018-05-09T07:52:30.541Z,10.50
2018-05-09T07:54:32.186Z,5.20
2018-05-09T07:55:30.301Z,5.20
2018-05-09T07:57:30.653Z,5.40
2018-05-09T07:58:31.192Z,5.20
2018-05-09T08:00:26.629Z,6.10
2018-05-09T08:01:26.574Z,6.00
2018-05-09T08:03:24.540Z,6.00
2018-05-09T08:04:24.601Z,5.50
2018-05-09T08:06:22.521Z,5.20
2018-05-09T08:07:22.483Z,5.20
2018-05-09T08:09:20.986Z,5.70
2018-05-09T08:10:21.440Z,5.80
2018-05-09T08:12:17.597Z,6.00
2018-05-09T08:13:16.576Z,5.60
2018-05-09T08:15:13.056Z,5.00
2018-05-09T08:16:12.553Z,5.10
2018-05-09T08:18:12.046Z,5.60
2018-05-09T08:19:12.457Z,5.40
2018-05-09T08:21:10.131Z,5.00
2018-05-09T08:22:08.714Z,5.30
2018-05-09T08:24:06.595Z,5.60
2018-05-09T08:25:06.106Z,4.90
2018-05-09T08:27:03.170Z,5.00
2018-05-09T08:28:01.619Z,5.50
2018-05-09T08:30:02.114Z,5.70
2018-05-09T08:31:04.039Z,5.70
2018-05-09T08:33:01.192Z,5.80
2018-05-09T08:34:00.978Z,5.40
2018-05-09T08:35:58.125Z,5.00
2018-05-09T08:36:59.583Z,5.00
2018-05-09T08:38:54.056Z,5.20
2018-05-09T08:39:54.079Z,4.80
2018-05-09T08:41:54.581Z,5.50
2018-05-09T08:42:55.541Z,5.40
2018-05-09T08:44:53.527Z,5.30
2018-05-09T08:45:53.510Z,5.70
2018-05-09T08:47:51.638Z,5.40
2018-05-09T08:48:52.642Z,5.40
2018-05-09T08:50:50.189Z,5.50
2018-05-09T08:51:48.757Z,5.80
2018-05-09T08:53:46.918Z,5.30
2018-05-09T08:54:46.894Z,5.10
2018-05-09T08:56:45.838Z,5.60
2018-05-09T08:57:44.828Z,5.20
2018-05-09T08:59:43.327Z,5.20
2018-05-09T09:00:43.818Z,5.80
2018-05-09T09:02:39.909Z,5.20
2018-05-09T09:03:38.904Z,5.30
2018-05-09T09:05:34.999Z,5.60
2018-05-09T09:06:35.380Z,5.30
2018-05-09T09:08:35.838Z,6.40
2018-05-09T09:09:36.308Z,5.70
2018-05-09T09:11:33.414Z,5.90
2018-05-09T09:12:33.379Z,5.30
2018-05-09T09:14:32.296Z,5.70
2018-05-09T09:15:31.345Z,4.90
2018-05-09T09:17:27.293Z,5.50
2018-05-09T09:18:27.326Z,6.30
2018-05-09T09:20:28.210Z,5.20
2018-05-09T09:21:27.710Z,5.50
2018-05-09T09:23:26.197Z,5.20
2018-05-09T09:24:25.710Z,5.10
2018-05-09T09:26:23.799Z,5.40
2018-05-09T09:27:23.912Z,5.50
2018-05-09T09:29:22.277Z,5.50
2018-05-09T09:30:21.796Z,6.00
2018-05-09T09:32:19.937Z,5.80
2018-05-09T09:33:19.946Z,5.60
2018-05-09T09:35:16.886Z,5.30
2018-05-09T09:36:17.380Z,4.80
2018-05-09T09:38:11.866Z,5.10
2018-05-09T09:39:12.363Z,5.20
2018-05-09T09:41:09.944Z,5.60
2018-05-09T09:42:10.851Z,5.70
2018-05-09T09:44:11.491Z,5.40
2018-05-09T09:45:11.455Z,5.20
2018-05-09T09:47:08.933Z,5.70
2018-05-09T09:48:09.401Z,5.10
2018-05-09T09:50:06.443Z,5.60
2018-05-09T09:51:06.878Z,6.00
2018-05-09T09:53:02.356Z,5.80
2018-05-09T09:54:02.346Z,5.50
2018-05-09T09:56:00.843Z,5.40
2018-05-09T09:57:00.810Z,5.50
2018-05-09T09:58:58.794Z,5.50
2018-05-09T09:59:59.359Z,5.00
2018-05-09T10:01:56.950Z,4.70
2018-05-09T10:02:57.396Z,5.20
2018-05-09T10:04:52.393Z,5.00
2018-05-09T10:05:53.358Z,5.30
2018-05-09T10:07:50.440Z,5.30
2018-05-09T10:08:48.338Z,4.80
2018-05-09T10:10:44.812Z,5.00
2018-05-09T10:11:44.419Z,5.20
2018-05-09T10:13:42.879Z,5.30
2018-05-09T10:14:43.307Z,5.20
2018-05-09T10:16:38.400Z,5.60
2018-05-09T10:17:38.409Z,5.00
2018-05-09T10:19:34.373Z,5.20
2018-05-09T10:20:34.391Z,5.00
2018-05-09T10:22:36.320Z,4.80
2018-05-09T10:23:34.831Z,5.30
2018-05-09T10:25:32.813Z,5.20
2018-05-09T10:26:33.811Z,5.20
2018-05-09T10:28:30.762Z,5.00
2018-05-09T10:29:30.806Z,5.50
2018-05-09T10:31:26.788Z,5.80
2018-05-09T10:32:26.728Z,5.40
2018-05-09T10:34:23.212Z,5.10
2018-05-09T10:35:24.206Z,4.80
2018-05-09T10:37:19.698Z,5.70
2018-05-09T10:38:19.168Z,5.40
2018-05-09T10:40:18.191Z,5.60
2018-05-09T10:41:18.624Z,5.30
2018-05-09T10:43:13.897Z,4.90
2018-05-09T10:44:13.909Z,4.90
2018-05-09T10:46:11.314Z,5.00
2018-05-09T10:47:09.923Z,5.20
2018-05-09T10:49:05.833Z,5.10
2018-05-09T10:50:05.809Z,5.30
2018-05-09T10:52:03.811Z,4.80
2018-05-09T10:53:03.852Z,5.50
2018-05-09T10:55:02.767Z,4.90
2018-05-09T10:56:02.758Z,5.00
2018-05-09T10:57:59.900Z,4.90
2018-05-09T10:59:00.342Z,5.20
2018-05-09T11:01:00.335Z,5.70
2018-05-09T11:02:02.315Z,5.40
2018-05-09T11:03:58.810Z,5.60
2018-05-09T11:04:58.468Z,4.80
2018-05-09T11:06:56.915Z,4.40
2018-05-09T11:07:56.457Z,4.70
2018-05-09T11:09:52.407Z,5.10
2018-05-09T11:10:52.467Z,5.30
2018-05-09T11:12:48.899Z,4.60
2018-05-09T11:13:48.401Z,5.20
2018-05-09T11:15:46.366Z,4.70
2018-05-09T11:16:46.887Z,4.70
2018-05-09T11:18:45.840Z,5.00
2018-05-09T11:19:45.333Z,4.70
2018-05-09T11:21:43.456Z,5.10
2018-05-09T11:22:42.576Z,4.50
2018-05-09T11:24:40.130Z,4.50
2018-05-09T11:25:39.051Z,5.00
2018-05-09T11:27:34.531Z,5.30
2018-05-09T11:28:36.016Z,4.80
2018-05-09T11:30:31.515Z,4.90
2018-05-09T11:31:30.500Z,4.60
2018-05-09T11:33:26.497Z,4.50
2018-05-09T11:34:26.489Z,4.90
2018-05-09T11:36:24.977Z,5.10
2018-05-09T11:37:24.949Z,5.10
2018-05-09T11:39:23.420Z,4.70
2018-05-09T11:40:22.370Z,5.40
2018-05-09T11:42:21.362Z,4.80
2018-05-09T11:43:20.499Z,4.20
2018-05-09T11:45:19.037Z,4.40
2018-05-09T11:46:18.647Z,5.30
2018-05-09T11:48:14.592Z,4.60
2018-05-09T11:49:15.597Z,5.10
2018-05-09T11:51:10.554Z,4.80
2018-05-09T11:52:11.067Z,4.90
2018-05-09T11:54:06.545Z,4.70
2018-05-09T11:55:07.543Z,4.60
2018-05-09T11:57:02.542Z,4.80
2018-05-09T11:58:03.433Z,4.50
2018-05-09T11:59:58.545Z,5.40
2018-05-09T12:00:59.462Z,4.80
2018-05-09T12:02:56.976Z,4.80
2018-05-09T12:03:57.477Z,4.70
2018-05-09T12:05:53.446Z,4.70
2018-05-09T12:06:52.397Z,4.70
2018-05-09T12:08:50.363Z,4.50
2018-05-09T12:09:48.386Z,4.40
2018-05-09T12:11:46.490Z,4.40
2018-05-09T12:12:46.507Z,5.20
2018-05-09T12:14:44.500Z,4.60
2018-05-09T12:15:44.470Z,5.90
2018-05-09T12:17:42.935Z,4.80
2018-05-09T12:18:42.466Z,4.60
2018-05-09T12:20:39.442Z,4.50
2018-05-09T12:21:38.472Z,4.40
2018-05-09T12:23:34.456Z,4.70
2018-05-09T12:24:34.519Z,4.60
2018-05-09T12:26:30.457Z,4.80
2018-05-09T12:27:30.441Z,4.90
2018-05-09T12:29:27.409Z,4.90
2018-05-09T12:30:28.405Z,4.80
2018-05-09T12:32:24.366Z,5.40
2018-05-09T12:34:39.856Z,4.90
2018-05-09T12:35:39.366Z,4.60
2018-05-09T12:37:37.873Z,4.70
2018-05-09T12:38:38.316Z,5.00
2018-05-09T12:40:33.485Z,5.20
2018-05-09T12:41:33.488Z,4.50
2018-05-09T12:43:29.448Z,4.70
2018-05-09T12:44:29.434Z,4.60
2018-05-09T12:46:27.948Z,5.10
2018-05-09T12:47:27.569Z,5.10
2018-05-09T12:49:23.969Z,5.50
2018-05-09T12:50:24.490Z,5.60
2018-05-09T12:52:19.515Z,4.40
2018-05-09T12:53:19.475Z,5.00
2018-05-09T12:55:16.433Z,5.40
2018-05-09T12:56:15.434Z,5.40
2018-05-09T12:58:11.425Z,4.50
2018-05-09T12:59:11.425Z,4.10
2018-05-09T13:01:08.814Z,4.80
2018-05-09T13:02:07.383Z,4.60
2018-05-09T13:04:05.852Z,4.20
2018-05-09T13:05:05.339Z,4.80
2018-05-09T13:07:01.848Z,6.90
2018-05-09T13:08:01.812Z,6.60
2018-05-09T13:09:58.274Z,5.00
2018-05-09T13:10:57.294Z,4.70
2018-05-09T13:12:53.225Z,4.80
2018-05-09T13:13:53.228Z,4.60
2018-05-09T13:15:51.155Z,5.10
2018-05-09T13:16:51.188Z,5.30
2018-05-09T13:18:50.131Z,4.70
2018-05-09T13:19:49.327Z,4.50
2018-05-09T13:21:47.772Z,4.70
2018-05-09T13:22:47.308Z,4.90
2018-05-09T13:24:44.269Z,5.60
2018-05-09T13:25:45.277Z,4.90
2018-05-09T13:27:40.746Z,5.00
2018-05-09T13:28:40.215Z,4.70
2018-05-09T13:30:40.183Z,5.50
2018-05-09T13:31:38.401Z,5.80
2018-05-09T13:33:35.354Z,5.10
2018-05-09T13:34:34.348Z,5.10
2018-05-09T13:36:30.266Z,5.70
2018-05-09T13:37:30.265Z,5.70
2018-05-09T13:39:28.231Z,6.10
2018-05-09T13:40:29.225Z,5.50
2018-05-09T13:42:24.213Z,5.70
2018-05-09T13:43:24.250Z,5.30
2018-05-09T13:45:22.656Z,5.00
2018-05-09T13:46:22.222Z,4.70
2018-05-09T13:48:19.126Z,5.20
2018-05-09T13:49:19.640Z,4.90
2018-05-09T13:51:17.102Z,5.70
2018-05-09T13:52:17.092Z,5.10
2018-05-09T13:54:14.065Z,5.30
2018-05-09T13:55:13.098Z,5.40
2018-05-09T13:57:09.079Z,4.70
2018-05-09T13:58:09.078Z,5.10
2018-05-09T14:00:06.050Z,4.80
2018-05-09T14:01:05.066Z,4.90
2018-05-09T14:03:01.530Z,4.60
2018-05-09T14:04:01.033Z,5.00
2018-05-09T14:05:57.990Z,4.60
2018-05-09T14:06:57.035Z,4.80
2018-05-09T14:08:53.498Z,4.70
2018-05-09T14:09:53.068Z,4.60
2018-05-09T14:11:49.991Z,4.90
2018-05-09T14:12:48.986Z,5.10
2018-05-09T14:14:47.978Z,5.60
2018-05-09T14:15:47.111Z,5.00
2018-05-09T14:17:45.064Z,5.60
2018-05-09T14:18:45.112Z,5.50
2018-05-09T14:20:45.040Z,4.90
2018-05-09T14:21:44.051Z,5.20
2018-05-09T14:23:39.685Z,4.70
2018-05-09T14:24:39.206Z,5.50
2018-05-09T14:26:35.140Z,4.50
2018-05-09T14:27:35.130Z,5.20
2018-05-09T14:29:31.168Z,4.90
2018-05-09T14:30:31.106Z,4.80
2018-05-09T14:32:28.067Z,5.40
2018-05-09T14:33:27.626Z,5.50
2018-05-09T14:35:26.051Z,5.30
2018-05-09T14:36:25.080Z,5.50
2018-05-09T14:38:23.527Z,5.10
2018-05-09T14:39:24.025Z,5.20
2018-05-09T14:41:21.149Z,5.20
2018-05-09T14:42:21.166Z,5.50
2018-05-09T14:44:20.122Z,5.40
2018-05-09T14:45:19.260Z,5.30
2018-05-09T14:47:19.220Z,5.20
2018-05-09T14:48:17.408Z,5.10
2018-05-09T14:50:13.405Z,5.30
2018-05-09T14:51:14.375Z,5.40
2018-05-09T14:53:12.890Z,5.00
2018-05-09T14:54:12.306Z,5.30
2018-05-09T14:56:07.466Z,4.70
2018-05-09T14:57:08.017Z,5.00
2018-05-09T14:59:06.506Z,5.40
2018-05-09T15:00:06.468Z,5.30
2018-05-09T15:02:03.972Z,5.70
2018-05-09T15:03:03.663Z,5.70
2018-05-09T15:05:01.546Z,6.10
2018-05-09T15:06:01.558Z,5.40
2018-05-09T15:08:00.022Z,5.40
2018-05-09T15:08:59.498Z,5.20
2018-05-09T15:10:55.497Z,6.20
2018-05-09T15:11:55.985Z,5.50
2018-05-09T15:13:53.948Z,5.10
2018-05-09T15:14:53.459Z,5.40
2018-05-09T15:16:48.645Z,6.10
2018-05-09T15:17:48.444Z,5.70
2018-05-09T15:19:45.353Z,6.40
2018-05-09T15:20:44.557Z,6.30
2018-05-09T15:22:40.545Z,6.70
2018-05-09T15:23:41.534Z,5.70
2018-05-09T15:25:39.021Z,6.30
2018-05-09T15:26:39.002Z,5.20
2018-05-09T15:28:37.460Z,5.10
2018-05-09T15:29:37.405Z,5.00
2018-05-09T15:31:35.434Z,6.40
2018-05-09T15:32:35.456Z,6.40
2018-05-09T15:34:32.927Z,5.70
2018-05-09T15:35:32.583Z,5.80
2018-05-09T15:37:31.116Z,5.30
2018-05-09T15:38:31.469Z,5.70
2018-05-09T15:40:29.709Z,5.50
2018-05-09T15:41:28.686Z,5.80
2018-05-09T15:43:24.661Z,5.90
2018-05-09T15:44:24.615Z,5.80
2018-05-09T15:46:22.098Z,5.40
2018-05-09T15:47:21.107Z,5.70
2018-05-09T15:49:19.046Z,5.90
2018-05-09T15:50:18.639Z,5.40
2018-05-09T15:52:14.524Z,6.00
2018-05-09T15:53:15.535Z,5.50
2018-05-09T15:55:11.507Z,5.60
2018-05-09T15:56:11.525Z,5.30
2018-05-09T15:58:07.465Z,6.60
2018-05-09T15:59:06.513Z,5.80
2018-05-09T16:01:11.525Z,6.40
2018-05-09T16:02:09.042Z,5.30
2018-05-09T16:04:06.498Z,5.20
2018-05-09T16:05:05.956Z,5.30
2018-05-09T16:07:03.939Z,5.30
2018-05-09T16:08:02.937Z,5.20
2018-05-09T16:10:00.843Z,5.20
2018-05-09T16:11:00.132Z,6.20
2018-05-09T16:12:59.130Z,5.80
2018-05-09T16:13:59.101Z,5.40
2018-05-09T16:15:56.643Z,5.50
2018-05-09T16:16:57.099Z,5.20
2018-05-09T16:18:52.293Z,5.20
2018-05-09T16:19:52.195Z,4.80
2018-05-09T16:21:50.155Z,5.10
2018-05-09T16:22:50.161Z,4.80
2018-05-09T16:24:49.661Z,5.70
2018-05-09T16:25:49.148Z,5.30
2018-05-09T16:27:46.277Z,5.10
2018-05-09T16:28:46.807Z,4.90
2018-05-09T16:30:46.192Z,4.80
2018-05-09T16:31:45.266Z,4.40
2018-05-09T16:33:44.788Z,5.30
2018-05-09T16:34:44.772Z,5.10
2018-05-09T16:36:43.271Z,4.90
2018-05-09T16:37:43.759Z,5.30
2018-05-09T16:39:41.725Z,5.00
2018-05-09T16:40:40.909Z,5.20
2018-05-09T16:42:39.393Z,5.40
2018-05-09T16:43:39.872Z,5.30
2018-05-09T16:45:39.447Z,5.10
2018-05-09T16:46:36.977Z,5.40
2018-05-09T16:48:35.940Z,4.90
2018-05-09T16:49:35.995Z,4.80
2018-05-09T16:51:32.116Z,5.20
2018-05-09T16:52:32.098Z,5.50
2018-05-09T16:54:27.101Z,5.00
2018-05-09T16:55:27.099Z,5.40
2018-05-09T16:57:25.107Z,6.30
2018-05-09T16:58:26.076Z,5.20
2018-05-09T17:00:23.536Z,5.30
2018-05-09T17:01:24.144Z,5.20
2018-05-09T17:03:22.020Z,5.80
2018-05-09T17:04:21.021Z,5.70
2018-05-09T17:06:19.498Z,5.80
2018-05-09T17:07:19.521Z,5.30
2018-05-09T17:09:19.444Z,5.50
2018-05-09T17:10:19.421Z,5.20
2018-05-09T17:12:18.413Z,5.40
2018-05-09T17:13:17.589Z,5.10
2018-05-09T17:15:17.061Z,4.60
2018-05-09T17:16:15.717Z,5.10
2018-05-09T17:18:14.190Z,5.20
2018-05-09T17:19:13.797Z,4.90
2018-05-09T17:21:15.691Z,5.40
2018-05-09T17:22:17.169Z,4.90
2018-05-09T17:24:11.237Z,5.70
2018-05-09T17:25:11.306Z,5.80
2018-05-09T17:27:10.199Z,5.50
2018-05-09T17:28:10.183Z,5.50
2018-05-09T17:30:11.598Z,5.30
2018-05-09T17:31:11.580Z,5.10
2018-05-09T17:33:10.926Z,5.00
2018-05-09T17:34:10.030Z,5.00
2018-05-09T17:36:07.995Z,4.60
2018-05-09T17:37:07.653Z,4.80
2018-05-09T17:39:03.607Z,5.00
2018-05-09T17:40:03.599Z,5.00
2018-05-09T17:42:03.568Z,5.70
2018-05-09T17:43:01.741Z,5.50
2018-05-09T17:45:00.237Z,5.80
2018-05-09T17:45:59.927Z,6.50
2018-05-09T17:47:58.808Z,6.00
2018-05-09T17:48:57.888Z,7.00
2018-05-09T17:50:57.368Z,5.00
2018-05-09T17:51:56.074Z,5.10
2018-05-09T17:53:54.583Z,5.80
2018-05-09T17:54:54.031Z,5.90
2018-05-09T17:56:53.039Z,6.30
2018-05-09T17:57:53.020Z,6.60
2018-05-09T17:59:51.195Z,5.50
2018-05-09T18:00:51.172Z,5.90
2018-05-09T18:02:50.846Z,5.60
2018-05-09T18:03:51.924Z,5.30
2018-05-09T18:05:49.309Z,5.80
2018-05-09T18:06:48.951Z,6.10
2018-05-09T18:08:47.925Z,5.70
2018-05-09T18:09:46.939Z,5.40
2018-05-09T18:11:42.909Z,6.40
2018-05-09T18:12:43.919Z,6.20
2018-05-09T18:14:43.473Z,6.00
2018-05-09T18:15:40.942Z,5.80
2018-05-09T18:17:36.864Z,5.50
2018-05-09T18:18:36.885Z,5.70
2018-05-09T18:20:38.348Z,6.00
2018-05-09T18:21:37.363Z,6.20
2018-05-09T18:23:36.866Z,5.50
2018-05-09T18:24:36.362Z,5.40
2018-05-09T18:26:35.900Z,5.30
2018-05-09T18:27:35.887Z,5.30
2018-05-09T18:29:35.332Z,5.20
2018-05-09T18:30:34.832Z,5.20
2018-05-09T18:32:32.031Z,5.60
2018-05-09T18:33:32.986Z,5.40
2018-05-09T18:35:30.483Z,4.60
2018-05-09T18:36:30.005Z,4.80
2018-05-09T18:38:27.987Z,5.80
2018-05-09T18:39:28.462Z,5.90
2018-05-09T18:41:29.440Z,5.40
2018-05-09T18:42:29.472Z,5.00
2018-05-09T18:44:30.474Z,5.20
2018-05-09T18:45:30.909Z,5.70
2018-05-09T18:47:26.907Z,5.60
2018-05-09T18:48:26.886Z,7.30
2018-05-09T18:50:24.904Z,6.20
2018-05-09T18:51:24.380Z,6.00
2018-05-09T18:53:24.841Z,6.10
2018-05-09T18:54:24.374Z,5.30
2018-05-09T18:56:25.825Z,7.60
2018-05-09T18:57:25.328Z,8.40
2018-05-09T18:59:23.258Z,6.30
2018-05-09T19:00:22.769Z,6.40
2018-05-09T19:02:20.740Z,6.80
2018-05-09T19:03:21.277Z,5.80
2018-05-09T19:05:20.707Z,5.40
2018-05-09T19:06:19.692Z,5.70
2018-05-09T19:08:16.699Z,7.00
2018-05-09T19:09:16.714Z,6.10
2018-05-09T19:11:13.139Z,6.20
2018-05-09T19:12:12.642Z,5.90
2018-05-09T19:14:11.612Z,6.00
2018-05-09T19:15:10.786Z,6.30
2018-05-09T19:17:08.744Z,7.00
2018-05-09T19:18:08.721Z,6.00
2018-05-09T19:20:08.268Z,6.10
2018-05-09T19:21:06.679Z,6.90
2018-05-09T19:23:05.120Z,6.00
2018-05-09T19:24:05.038Z,6.00
2018-05-09T19:26:03.500Z,6.90
2018-05-09T19:27:02.973Z,6.50
2018-05-09T19:29:00.989Z,6.40
2018-05-09T19:30:00.956Z,6.00
2018-05-09T19:31:59.930Z,7.00
2018-05-09T19:32:59.931Z,7.30
2018-05-09T19:34:57.063Z,7.10
2018-05-09T19:35:57.033Z,7.60
2018-05-09T19:37:55.025Z,7.80
2018-05-09T19:38:55.007Z,7.70
2018-05-09T19:40:52.406Z,7.40
2018-05-09T19:41:51.068Z,6.90
2018-05-09T19:43:47.950Z,6.70
2018-05-09T19:44:47.934Z,6.60
2018-05-09T19:46:42.928Z,7.10
2018-05-09T19:47:42.946Z,6.80
2018-05-09T19:49:38.920Z,7.30